Cape Baltic — 9VHL8 — position and weather

sailwx.info

Track history (hours):
 
Tides and Currents Weather Stations Pressure Air Temp Water Temp Dewpoint Dewpoint Depression Visibility Wind Speed Wind Dir Waves Ship Positions

Cape Baltic

Last reported at 2018-Feb-12 04:04 UTC. Time now 2018-Feb-25 18:11 UTC.
Position N 31°30' W 123°49'.
Warning: this ship's position is 13 days out of date.

Length 289 m; draft 8.7 m.

Type: Ship. MMSI: 565030000.

Date/timePositionNaut miles runAvg speedWind from/ knotsBaromVisibWave heightAir tempDewpointWater temp
2018-Feb-12 04:04N 31°30' W 123°49'2113.1
2018-Feb-12 02:27N 31°43' W 124°09'1013.1
2018-Feb-12 01:40N 31°48' W 124°19'16913.4
2018-Feb-11 13:03N 33°26' W 127°02'313.6
2018-Feb-11 12:50N 33°28' W 127°05'513.3
2018-Feb-11 12:29N 33°30' W 127°10'613.3
2018-Feb-11 12:00N 33°34' W 127°16'713.5
2018-Feb-11 11:29N 33°38' W 127°23'813.6
2018-Feb-11 10:55N 33°43' W 127°30'1413.5
2018-Feb-11 09:52N 33°51' W 127°44'513.7
2018-Feb-11 09:30N 33°54' W 127°49'3513.6
2018-Feb-11 06:57N 34°14' W 128°23'1313.2
2018-Feb-11 05:59N 34°21' W 128°36'613.3
2018-Feb-11 05:30N 34°25' W 128°42'713.4
2018-Feb-11 05:00N 34°29' W 128°49'2713.8
2018-Feb-11 03:02N 34°44' W 129°16'012.9
2018-Feb-11 03:00N 34°45' W 129°16'814.2
2018-Feb-11 02:25N 34°50' W 129°24'613.8
2018-Feb-11 02:00N 34°53' W 129°30'713.6
2018-Feb-11 01:30N 34°57' W 129°37'713.8
2018-Feb-11 01:00N 35°01' W 129°43'914.1
2018-Feb-11 00:23N 35°06' W 129°52'513.8
2018-Feb-11 00:00N 35°09' W 129°57'714.0
2018-Feb-10 23:30N 35°13' W 130°04'2314.1
2018-Feb-10 21:53N 35°26' W 130°27'513.9
2018-Feb-10 21:30N 35°29' W 130°33'1013.9
2018-Feb-10 20:48N 35°35' W 130°43'  
Track history (hours):
 
Tides and Currents Weather Stations Pressure Air Temp Water Temp Dewpoint Dewpoint Depression Visibility Wind Speed Wind Dir Waves Ship Positions

Cape Baltic

Last reported at 2018-Feb-12 04:04 UTC. Time now 2018-Feb-25 18:11 UTC.
Position N 31°30' W 123°49'.
Warning: this ship's position is 13 days out of date.

Length 289 m; draft 8.7 m.

Type: Ship. MMSI: 565030000.

Date/timePositionNaut miles runAvg speedWind from/ knotsBaromVisibWave heightAir tempDewpointWater temp
2018-Feb-12 04:04N 31°30' W 123°49'2113.1
2018-Feb-12 02:27N 31°43' W 124°09'1013.1
2018-Feb-12 01:40N 31°48' W 124°19'16913.4
2018-Feb-11 13:03N 33°26' W 127°02'313.6
2018-Feb-11 12:50N 33°28' W 127°05'513.3
2018-Feb-11 12:29N 33°30' W 127°10'613.3
2018-Feb-11 12:00N 33°34' W 127°16'713.5
2018-Feb-11 11:29N 33°38' W 127°23'813.6
2018-Feb-11 10:55N 33°43' W 127°30'1413.5
2018-Feb-11 09:52N 33°51' W 127°44'513.7
2018-Feb-11 09:30N 33°54' W 127°49'3513.6
2018-Feb-11 06:57N 34°14' W 128°23'1313.2
2018-Feb-11 05:59N 34°21' W 128°36'613.3
2018-Feb-11 05:30N 34°25' W 128°42'713.4
2018-Feb-11 05:00N 34°29' W 128°49'2713.8
2018-Feb-11 03:02N 34°44' W 129°16'012.9
2018-Feb-11 03:00N 34°45' W 129°16'814.2
2018-Feb-11 02:25N 34°50' W 129°24'613.8
2018-Feb-11 02:00N 34°53' W 129°30'713.6
2018-Feb-11 01:30N 34°57' W 129°37'713.8
2018-Feb-11 01:00N 35°01' W 129°43'914.1
2018-Feb-11 00:23N 35°06' W 129°52'513.8
2018-Feb-11 00:00N 35°09' W 129°57'714.0
2018-Feb-10 23:30N 35°13' W 130°04'2314.1
2018-Feb-10 21:53N 35°26' W 130°27'513.9
2018-Feb-10 21:30N 35°29' W 130°33'1013.9
2018-Feb-10 20:48N 35°35' W 130°43'  

Dump ship's entire track history